Time;durP1;ratioP1;P1;durP2;ratioP2;P2;SDS_P1;SDS_P2;PMS_P1;PMS_P2;Temp;Humidity;BMP_temperature;BMP_pressure;BME280_temperature;BME280_humidity;BME280_pressure;Samples;Min_cycle;Max_cycle;Signal;HPM_P1;HPM_P2
2021/01/11 00:00:50;;;;;;;31.83;12.38;;;6.00;51.00;;;;;;7690672;23;20016;-73
2021/01/11 00:03:50;;;;;;;28.08;11.30;;;6.00;51.00;;;;;;7689547;23;20027;-72
2021/01/11 00:06:51;;;;;;;27.08;10.45;;;6.00;51.00;;;;;;7665542;23;20080;-73
2021/01/11 00:09:52;;;;;;;31.70;13.07;;;6.00;51.00;;;;;;7665488;23;20531;-72
2021/01/11 00:12:54;;;;;;;30.38;11.65;;;6.00;51.00;;;;;;7664779;23;20025;-73
2021/01/11 00:15:55;;;;;;;28.33;11.70;;;6.00;51.00;;;;;;7688493;23;20031;-73
2021/01/11 00:18:56;;;;;;;25.70;10.63;;;6.00;51.00;;;;;;7690087;23;20016;-73
2021/01/11 00:21:57;;;;;;;27.90;11.07;;;6.00;51.10;;;;;;7690144;23;20021;-73
2021/01/11 00:24:58;;;;;;;25.73;10.15;;;6.00;51.10;;;;;;7665546;23;20012;-73
2021/01/11 00:27:59;;;;;;;26.48;11.52;;;6.00;51.20;;;;;;7715704;23;20020;-73
2021/01/11 00:31:00;;;;;;;28.30;11.45;;;6.00;51.20;;;;;;7690631;23;20039;-73
2021/01/11 00:34:01;;;;;;;34.72;12.27;;;6.00;51.30;;;;;;7716129;23;20424;-73
2021/01/11 00:37:01;;;;;;;22.10;10.55;;;5.90;51.40;;;;;;7716122;23;20005;-74
2021/01/11 00:40:05;;;;;;;20.17;9.82;;;5.90;52.00;;;;;;7716156;23;20023;-74
2021/01/11 00:43:06;;;;;;;32.47;11.70;;;5.90;51.50;;;;;;7689132;23;20424;-71
2021/01/11 00:46:07;;;;;;;24.13;9.52;;;5.90;51.50;;;;;;7690284;23;20008;-72
2021/01/11 00:49:10;;;;;;;37.97;13.18;;;5.80;51.60;;;;;;7690149;23;20081;-73
2021/01/11 00:52:10;;;;;;;31.92;12.40;;;5.80;51.50;;;;;;7715983;23;20295;-72
2021/01/11 00:55:12;;;;;;;27.65;11.43;;;5.80;51.70;;;;;;7689581;23;20036;-73
2021/01/11 00:58:21;;;;;;;36.35;11.57;;;5.80;51.80;;;;;;7714831;23;20015;-72
2021/01/11 01:01:27;;;;;;;;;;;5.80;51.80;;;;;;7690082;23;20289;-72
2021/01/11 01:04:28;;;;;;;27.48;11.02;;;5.80;51.90;;;;;;7689593;23;19971;-72
2021/01/11 01:07:29;;;;;;;36.47;12.73;;;5.80;51.90;;;;;;7664852;23;20071;-73
2021/01/11 01:10:30;;;;;;;25.35;10.15;;;5.80;51.90;;;;;;7690369;23;20012;-72
2021/01/11 01:13:31;;;;;;;27.98;11.85;;;5.80;51.90;;;;;;7686877;23;20028;-72
2021/01/11 01:16:32;;;;;;;28.40;11.75;;;5.80;51.90;;;;;;7689870;23;20016;-72
2021/01/11 01:19:33;;;;;;;32.33;12.35;;;5.80;51.90;;;;;;7715643;23;20013;-72
2021/01/11 01:22:34;;;;;;;32.58;12.60;;;5.80;52.00;;;;;;7715705;23;20024;-72
2021/01/11 01:25:35;;;;;;;26.77;11.85;;;5.90;52.00;;;;;;7715576;23;20320;-72
2021/01/11 01:28:35;;;;;;;29.98;11.00;;;5.90;52.00;;;;;;7688859;23;20047;-73
2021/01/11 01:31:36;;;;;;;27.90;11.30;;;5.80;52.00;;;;;;7688909;23;20096;-73
2021/01/11 01:34:37;;;;;;;32.60;11.63;;;5.80;52.10;;;;;;7689163;23;20395;-73
2021/01/11 01:37:38;;;;;;;31.65;11.57;;;5.80;52.10;;;;;;7689249;23;20041;-73
2021/01/11 01:40:41;;;;;;;32.05;11.35;;;5.80;52.20;;;;;;7689365;23;20024;-73
2021/01/11 01:43:42;;;;;;;26.35;10.55;;;5.80;51.90;;;;;;7688825;23;20092;-72
2021/01/11 01:46:43;;;;;;;25.98;11.00;;;5.80;51.70;;;;;;7689666;23;20423;-72
2021/01/11 01:49:44;;;;;;;21.52;11.15;;;5.80;51.40;;;;;;7689108;23;20375;-72
2021/01/11 01:52:45;;;;;;;24.08;10.38;;;5.80;51.30;;;;;;7689434;23;20381;-72
2021/01/11 01:55:48;;;;;;;26.33;11.10;;;5.90;51.20;;;;;;7688838;23;20021;-73
2021/01/11 01:58:49;;;;;;;27.63;10.90;;;5.90;51.00;;;;;;7688888;23;20013;-75
2021/01/11 02:01:53;;;;;;;23.88;10.25;;;5.90;50.80;;;;;;7689596;23;20304;-74
2021/01/11 02:04:54;;;;;;;27.70;11.15;;;5.80;51.40;;;;;;7715505;23;20096;-74
2021/01/11 02:08:22;;;;;;;23.05;10.18;;;5.90;50.90;;;;;;7715636;23;20319;-75
2021/01/11 02:11:44;;;;;;;23.88;10.07;;;5.80;50.70;;;;;;7691396;23;20082;-72
2021/01/11 02:14:57;;;;;;;26.67;12.13;;;5.90;50.70;;;;;;7688594;23;20071;-72
2021/01/11 02:18:10;;;;;;;21.45;9.45;;;5.90;50.60;;;;;;7689488;23;20388;-73
2021/01/11 02:21:43;;;;;;;25.77;10.63;;;5.80;50.40;;;;;;7714470;23;20028;-73
2021/01/11 02:25:11;;;;;;;22.55;10.68;;;5.80;50.90;;;;;;7689723;23;20021;-74
2021/01/11 02:28:20;;;;;;;24.40;10.25;;;5.90;50.30;;;;;;7688402;23;20071;-74
2021/01/11 02:31:24;;;;;;;23.35;9.88;;;5.90;50.20;;;;;;7690153;23;20016;-74
2021/01/11 02:34:27;;;;;;;28.63;9.82;;;6.00;50.10;;;;;;7716106;23;20016;-74
2021/01/11 02:37:29;;;;;;;27.42;10.52;;;6.00;50.00;;;;;;7715264;23;20070;-74
2021/01/11 02:40:32;;;;;;;25.75;10.00;;;6.00;49.90;;;;;;7691740;23;20013;-74
2021/01/11 02:43:33;;;;;;;22.15;9.80;;;6.10;49.80;;;;;;7673899;23;20004;-74
2021/01/11 02:46:33;;;;;;;23.10;10.00;;;6.10;49.60;;;;;;7695214;23;20023;-73
2021/01/11 02:49:50;;;;;;;22.10;8.85;;;6.10;49.30;;;;;;7716212;23;20360;-73
2021/01/11 02:53:07;;;;;;;24.02;10.00;;;6.10;48.90;;;;;;7724829;23;20008;-72
2021/01/11 02:56:10;;;;;;;21.70;9.73;;;6.10;49.00;;;;;;7700763;23;20095;-73
2021/01/11 02:59:24;;;;;;;16.35;7.70;;;6.00;49.00;;;;;;7733652;23;20020;-73
2021/01/11 03:02:31;;;;;;;19.02;8.65;;;6.00;49.00;;;;;;7726398;23;20398;-74
2021/01/11 03:05:32;;;;;;;21.75;8.60;;;6.10;48.90;;;;;;7693950;23;20078;-74
2021/01/11 03:08:33;;;;;;;26.25;10.32;;;6.10;48.70;;;;;;7719052;23;20772;-74
2021/01/11 03:11:35;;;;;;;23.70;10.57;;;6.10;48.60;;;;;;7720644;23;20032;-74
2021/01/11 03:14:36;;;;;;;24.13;10.50;;;6.10;48.60;;;;;;7670619;23;20586;-71
2021/01/11 03:17:36;;;;;;;25.10;10.68;;;6.10;48.50;;;;;;7694211;23;20040;-72
2021/01/11 03:20:38;;;;;;;24.33;9.75;;;6.10;48.50;;;;;;7692430;23;20031;-72
2021/01/11 03:23:39;;;;;;;18.10;8.60;;;6.10;48.40;;;;;;7692418;23;20017;-71
2021/01/11 03:26:39;;;;;;;19.00;9.25;;;6.00;48.10;;;;;;7715699;23;20062;-73
2021/01/11 03:29:40;;;;;;;18.45;7.90;;;6.10;48.10;;;;;;7688429;23;20023;-72
2021/01/11 03:32:41;;;;;;;12.38;6.05;;;6.10;47.80;;;;;;7715165;23;20320;-72
2021/01/11 03:35:42;;;;;;;18.88;7.65;;;6.10;47.60;;;;;;7688922;23;20017;-73
2021/01/11 03:38:43;;;;;;;19.98;9.15;;;6.10;47.40;;;;;;7689171;23;20084;-72
2021/01/11 03:41:47;;;;;;;18.88;8.25;;;6.10;47.20;;;;;;7688882;23;20020;-72
2021/01/11 03:44:48;;;;;;;19.52;8.52;;;6.10;47.10;;;;;;7714736;23;20016;-72
2021/01/11 03:47:49;;;;;;;23.52;10.23;;;6.10;47.10;;;;;;7688996;23;20104;-73
2021/01/11 03:50:50;;;;;;;18.52;9.80;;;6.10;47.10;;;;;;7683476;23;20024;-72
2021/01/11 03:53:51;;;;;;;24.38;10.35;;;6.10;47.20;;;;;;7652135;23;20017;-72
2021/01/11 03:56:52;;;;;;;20.88;9.98;;;6.10;47.30;;;;;;7651556;23;20080;-73
2021/01/11 03:59:53;;;;;;;22.50;10.00;;;6.10;47.70;;;;;;7676888;23;20368;-74
2021/01/11 04:02:55;;;;;;;26.75;9.65;;;6.10;47.90;;;;;;7651414;23;20025;-73
2021/01/11 04:05:57;;;;;;;26.50;9.80;;;6.10;48.00;;;;;;7677927;23;20040;-73
2021/01/11 04:08:59;;;;;;;25.75;9.10;;;6.10;48.10;;;;;;7651512;23;20643;-74
2021/01/11 04:12:00;;;;;;;21.67;10.00;;;6.10;48.10;;;;;;7636914;23;20359;-73
2021/01/11 04:15:01;;;;;;;25.15;9.80;;;6.00;48.10;;;;;;7673268;23;20030;-73
2021/01/11 04:18:02;;;;;;;28.58;10.70;;;6.00;48.20;;;;;;7677801;23;20151;-73
2021/01/11 04:21:03;;;;;;;24.08;9.80;;;6.00;48.20;;;;;;7676564;23;20309;-73
2021/01/11 04:24:04;;;;;;;24.38;11.27;;;6.00;48.50;;;;;;7677807;23;20009;-72
2021/01/11 04:27:05;;;;;;;19.77;8.93;;;6.00;48.70;;;;;;7676106;23;20017;-74
2021/01/11 04:30:08;;;;;;;23.88;10.35;;;6.00;48.70;;;;;;7676545;23;20028;-74
2021/01/11 04:33:09;;;;;;;27.42;12.10;;;5.90;48.70;;;;;;7677361;23;20066;-74
2021/01/11 04:36:10;;;;;;;26.70;11.38;;;5.90;48.80;;;;;;7675967;23;20424;-73
2021/01/11 04:39:11;;;;;;;22.77;10.18;;;5.90;48.80;;;;;;7676510;23;20013;-72
2021/01/11 04:42:16;;;;;;;19.52;9.10;;;5.90;48.80;;;;;;7669050;23;20009;-74
2021/01/11 04:45:18;;;;;;;25.15;11.45;;;5.90;48.90;;;;;;7676527;23;20036;-74
2021/01/11 04:48:20;;;;;;;24.48;10.15;;;5.80;48.90;;;;;;7660410;23;20021;-73
2021/01/11 04:51:21;;;;;;;28.83;9.43;;;5.80;49.00;;;;;;7675968;23;20424;-73
2021/01/11 04:54:22;;;;;;;28.88;11.32;;;5.80;49.10;;;;;;7676188;23;20091;-72
2021/01/11 04:57:24;;;;;;;23.23;11.18;;;5.90;49.20;;;;;;7675856;23;20013;-73
2021/01/11 05:00:27;;;;;;;28.73;11.27;;;6.00;49.30;;;;;;7674326;23;20093;-72
2021/01/11 05:03:30;;;;;;;26.30;11.57;;;5.90;49.40;;;;;;7651314;23;20099;-72
2021/01/11 05:06:32;;;;;;;31.50;10.75;;;5.90;49.70;;;;;;7676163;23;20013;-73
2021/01/11 05:09:33;;;;;;;24.35;11.27;;;6.00;49.80;;;;;;7677263;23;20062;-73
2021/01/11 05:12:34;;;;;;;23.35;10.65;;;5.90;50.00;;;;;;7674829;23;20405;-73
2021/01/11 05:15:40;;;;;;;27.77;11.65;;;5.90;50.00;;;;;;7677356;23;20025;-73
2021/01/11 05:18:42;;;;;;;28.25;10.60;;;5.90;50.00;;;;;;7675283;23;20016;-73
2021/01/11 05:21:44;;;;;;;25.08;10.50;;;6.00;50.10;;;;;;7675715;23;20017;-73
2021/01/11 05:24:46;;;;;;;26.25;10.43;;;6.00;50.00;;;;;;7675394;23;20405;-73
2021/01/11 05:28:17;;;;;;;33.58;11.80;;;6.00;49.80;;;;;;7674930;23;20424;-73
2021/01/11 05:31:18;;;;;;;28.77;10.50;;;6.00;49.60;;;;;;7670526;23;20036;-73
2021/01/11 05:34:19;;;;;;;19.15;9.32;;;6.00;49.20;;;;;;7618764;23;20010;-73
2021/01/11 05:37:31;;;;;;;22.48;10.18;;;5.90;49.10;;;;;;7638510;23;20059;-74
2021/01/11 05:40:32;;;;;;;23.20;10.98;;;5.90;49.10;;;;;;7640591;23;20081;-74
2021/01/11 05:43:33;;;;;;;24.60;10.80;;;5.90;49.10;;;;;;7639374;23;20356;-74
2021/01/11 05:46:34;;;;;;;25.98;9.98;;;5.90;49.00;;;;;;7642842;23;20049;-74
2021/01/11 05:49:35;;;;;;;26.55;10.57;;;5.90;49.00;;;;;;7651059;23;20032;-74
2021/01/11 05:52:36;;;;;;;26.85;11.02;;;5.90;48.90;;;;;;7653656;23;20024;-72
2021/01/11 05:55:37;;;;;;;24.80;10.73;;;5.90;48.90;;;;;;7652672;23;20329;-72
2021/01/11 05:58:37;;;;;;;23.02;10.32;;;5.80;48.90;;;;;;7678462;23;20433;-72
2021/01/11 06:01:38;;;;;;;28.65;10.60;;;5.80;49.10;;;;;;7678660;23;20020;-72
2021/01/11 06:04:39;;;;;;;20.77;10.25;;;5.70;49.20;;;;;;7628187;23;20088;-72
2021/01/11 06:07:42;;;;;;;30.77;11.82;;;5.70;49.30;;;;;;7652362;23;20013;-72
2021/01/11 06:10:44;;;;;;;24.05;11.15;;;5.70;49.50;;;;;;7653104;23;20364;-72
2021/01/11 06:13:48;;;;;;;28.05;10.32;;;5.70;49.60;;;;;;7650205;23;20072;-74
2021/01/11 06:16:49;;;;;;;26.67;11.80;;;5.70;49.80;;;;;;7679133;23;20032;-74
2021/01/11 06:19:49;;;;;;;28.80;10.77;;;5.70;50.00;;;;;;7653271;23;20016;-74
2021/01/11 06:22:51;;;;;;;24.55;11.35;;;5.70;50.10;;;;;;7653867;23;20321;-73
2021/01/11 06:25:52;;;;;;;24.98;10.40;;;5.70;50.10;;;;;;7714064;23;20018;-74
2021/01/11 06:28:54;;;;;;;19.92;10.27;;;5.70;50.10;;;;;;7689876;23;20016;-74
2021/01/11 06:31:57;;;;;;;28.55;10.57;;;5.70;50.20;;;;;;7686760;23;20024;-74
2021/01/11 06:34:58;;;;;;;26.50;10.65;;;5.60;50.30;;;;;;7668902;23;20063;-72
2021/01/11 06:38:07;;;;;;;37.45;10.73;;;5.60;50.20;;;;;;7693530;23;20047;-74
2021/01/11 06:41:09;;;;;;;27.92;12.07;;;5.60;50.20;;;;;;7693181;23;20416;-73
2021/01/11 06:44:14;;;;;;;26.40;11.73;;;5.70;50.70;;;;;;7690948;23;20074;-73
2021/01/11 06:47:28;;;;;;;19.42;8.68;;;5.60;50.20;;;;;;7689918;23;20021;-73
2021/01/11 06:50:30;;;;;;;26.25;10.98;;;5.70;50.20;;;;;;7714796;23;20016;-73
2021/01/11 06:53:31;;;;;;;19.90;8.82;;;5.70;50.00;;;;;;7688899;23;20091;-73
2021/01/11 06:56:32;;;;;;;19.77;8.77;;;5.70;49.80;;;;;;7688576;23;20016;-73
2021/01/11 06:59:37;;;;;;;21.35;9.57;;;5.80;49.70;;;;;;7688828;23;20017;-74
2021/01/11 07:02:42;;;;;;;20.42;9.48;;;5.80;49.60;;;;;;7715823;23;20031;-73
2021/01/11 07:05:47;;;;;;;24.42;9.43;;;5.80;49.40;;;;;;7689740;23;20016;-74
2021/01/11 07:08:48;;;;;;;21.55;9.00;;;5.80;49.10;;;;;;7689327;23;20050;-73
2021/01/11 07:11:51;;;;;;;19.50;9.10;;;5.80;48.90;;;;;;7689543;23;20020;-73
2021/01/11 07:14:55;;;;;;;20.17;9.25;;;5.80;48.80;;;;;;7688691;23;20051;-73
2021/01/11 07:17:56;;;;;;;19.63;7.60;;;5.70;48.40;;;;;;7715374;23;20016;-74
2021/01/11 07:20:58;;;;;;;20.42;8.50;;;5.70;47.50;;;;;;7714756;23;20412;-73
2021/01/11 07:24:01;;;;;;;21.08;9.40;;;5.70;47.10;;;;;;7689166;23;20016;-73
2021/01/11 07:27:02;;;;;;;22.15;9.13;;;5.70;47.20;;;;;;7689135;23;20100;-73
2021/01/11 07:30:04;;;;;;;25.25;8.95;;;5.70;47.30;;;;;;7688105;23;20012;-73
2021/01/11 07:33:12;;;;;;;21.27;9.40;;;5.70;47.40;;;;;;7689136;23;20087;-73
2021/01/11 07:36:17;;;;;;;;;;;5.70;47.40;;;;;;7714040;23;20020;-73
2021/01/11 07:39:23;;;;;;;17.75;8.00;;;5.80;47.20;;;;;;7663849;23;19967;-74
2021/01/11 07:42:24;;;;;;;17.77;7.70;;;5.80;47.10;;;;;;7688191;23;20028;-73
2021/01/11 07:45:25;;;;;;;18.63;7.85;;;5.80;47.00;;;;;;7661825;23;20033;-72
2021/01/11 07:48:26;;;;;;;18.25;7.90;;;5.80;46.90;;;;;;7688631;23;20071;-72
2021/01/11 07:51:28;;;;;;;18.42;8.68;;;5.80;46.90;;;;;;7714091;23;20328;-73
2021/01/11 07:54:30;;;;;;;26.33;9.60;;;5.80;46.70;;;;;;7663487;23;20028;-73
2021/01/11 07:57:31;;;;;;;18.90;7.90;;;5.80;46.60;;;;;;7687502;23;20332;-73
2021/01/11 08:00:32;;;;;;;21.83;8.40;;;5.80;46.60;;;;;;7687863;23;20036;-73
2021/01/11 08:03:34;;;;;;;23.63;8.90;;;5.90;46.50;;;;;;7649457;23;20363;-74
2021/01/11 08:06:44;;;;;;;18.65;8.02;;;5.80;46.50;;;;;;7687509;23;20017;-72
2021/01/11 08:09:45;;;;;;;15.32;7.80;;;5.80;46.60;;;;;;7713744;23;20371;-73
2021/01/11 08:12:46;;;;;;;21.80;8.20;;;5.80;46.10;;;;;;7714679;23;20039;-72
2021/01/11 08:15:53;;;;;;;21.85;9.25;;;5.80;45.90;;;;;;7687019;23;20506;-75
2021/01/11 08:19:03;;;;;;;22.30;8.57;;;5.90;46.00;;;;;;7686739;23;20017;-73
2021/01/11 08:22:04;;;;;;;19.83;8.55;;;5.90;45.70;;;;;;7714234;23;20027;-73
2021/01/11 08:25:07;;;;;;;19.25;8.60;;;5.90;45.20;;;;;;7682249;23;20122;-72
2021/01/11 08:28:11;;;;;;;19.52;7.97;;;5.90;44.90;;;;;;7655101;23;20424;-73
2021/01/11 08:31:12;;;;;;;18.30;8.30;;;5.90;44.90;;;;;;7687235;23;20012;-73
2021/01/11 08:34:13;;;;;;;19.92;7.10;;;5.90;44.80;;;;;;7688625;23;20017;-74
2021/01/11 08:37:29;;;;;;;15.80;6.75;;;5.90;44.60;;;;;;7688569;23;20096;-73
2021/01/11 08:40:34;;;;;;;23.30;8.00;;;5.90;44.50;;;;;;7714670;23;20016;-73
2021/01/11 08:43:36;;;;;;;20.15;7.80;;;5.90;44.20;;;;;;7713254;23;20082;-73
2021/01/11 08:46:58;;;;;;;18.35;7.93;;;5.80;43.70;;;;;;7713463;23;20020;-73
2021/01/11 08:50:01;;;;;;;20.95;8.70;;;5.80;43.80;;;;;;7711085;23;20420;-73
2021/01/11 08:53:17;;;;;;;18.20;7.68;;;5.80;43.80;;;;;;7685985;23;20012;-73
2021/01/11 08:56:28;;;;;;;20.15;7.07;;;5.80;43.90;;;;;;7686122;23;20017;-73
2021/01/11 08:59:29;;;;;;;20.42;8.25;;;5.90;44.20;;;;;;7685536;23;20092;-73
2021/01/11 09:02:30;;;;;;;17.50;7.43;;;5.90;44.10;;;;;;7684097;23;20012;-73
2021/01/11 09:05:37;;;;;;;16.88;7.57;;;5.90;44.20;;;;;;7710165;23;20047;-73
2021/01/11 09:08:38;;;;;;;17.23;7.35;;;5.90;43.80;;;;;;7711183;23;20021;-72
2021/01/11 09:11:40;;;;;;;21.60;8.10;;;5.90;43.80;;;;;;7663553;23;20017;-72
2021/01/11 09:14:54;;;;;;;26.98;9.43;;;6.00;43.70;;;;;;7670624;23;20017;-74
2021/01/11 09:18:04;;;;;;;17.90;7.88;;;6.00;43.90;;;;;;7713425;23;20455;-72
2021/01/11 09:21:07;;;;;;;17.63;7.10;;;6.00;44.00;;;;;;7687772;23;20023;-72
2021/01/11 09:24:09;;;;;;;13.52;7.00;;;6.00;44.00;;;;;;7663449;23;20013;-73
2021/01/11 09:27:11;;;;;;;17.65;7.53;;;6.10;44.10;;;;;;7687975;23;20083;-73
2021/01/11 09:30:12;;;;;;;20.58;8.18;;;6.10;44.20;;;;;;7686920;23;20017;-73
2021/01/11 09:33:14;;;;;;;17.92;7.70;;;6.00;44.10;;;;;;7687849;23;20025;-74
2021/01/11 09:36:14;;;;;;;19.00;8.18;;;6.10;44.20;;;;;;7662403;23;20108;-74
2021/01/11 09:39:17;;;;;;;21.13;9.10;;;6.20;44.20;;;;;;7662972;23;20096;-72
2021/01/11 09:42:19;;;;;;;19.15;8.25;;;6.10;44.30;;;;;;7712773;23;20305;-72
2021/01/11 09:45:20;;;;;;;15.82;7.07;;;6.00;44.30;;;;;;7686859;23;20013;-72
2021/01/11 09:48:21;;;;;;;17.42;7.40;;;6.10;44.30;;;;;;7687324;23;20020;-74
2021/01/11 09:51:28;;;;;;;16.40;6.32;;;6.00;44.10;;;;;;7686558;23;20086;-72
2021/01/11 09:54:30;;;;;;;22.55;7.28;;;6.00;44.30;;;;;;7712243;23;20040;-74
2021/01/11 09:57:36;;;;;;;19.02;8.77;;;6.00;44.30;;;;;;7686575;23;20163;-72
2021/01/11 10:00:36;;;;;;;16.85;7.50;;;6.00;44.50;;;;;;7687237;23;20435;-73
2021/01/11 10:03:38;;;;;;;15.35;7.72;;;6.00;44.50;;;;;;7687090;23;20021;-73
2021/01/11 10:06:38;;;;;;;20.33;8.57;;;6.10;44.50;;;;;;7686473;23;20017;-73
2021/01/11 10:09:40;;;;;;;19.65;8.80;;;6.10;44.30;;;;;;7687033;23;20017;-73
2021/01/11 10:12:41;;;;;;;20.33;8.68;;;6.10;44.30;;;;;;7687253;23;20024;-73
2021/01/11 10:15:42;;;;;;;21.65;9.98;;;6.00;44.20;;;;;;7686876;23;20024;-73
2021/01/11 10:18:43;;;;;;;23.88;9.10;;;6.10;44.20;;;;;;7709574;23;20137;-74
2021/01/11 10:21:45;;;;;;;17.35;7.55;;;6.20;44.20;;;;;;7711187;23;20013;-73
2021/01/11 10:24:50;;;;;;;24.83;8.85;;;6.20;44.00;;;;;;7686872;23;20013;-73
2021/01/11 10:27:54;;;;;;;21.60;8.50;;;6.30;43.70;;;;;;7686532;23;20286;-73
2021/01/11 10:30:57;;;;;;;28.05;9.55;;;6.30;43.20;;;;;;7688965;23;20075;-73
2021/01/11 10:33:58;;;;;;;21.08;9.40;;;6.30;43.10;;;;;;7689234;23;20015;-73
2021/01/11 10:36:59;;;;;;;19.35;7.68;;;6.30;43.10;;;;;;7633247;23;20025;-73
2021/01/11 10:40:00;;;;;;;17.05;8.80;;;6.30;43.10;;;;;;7704840;23;20032;-73
2021/01/11 10:43:01;;;;;;;18.35;8.18;;;6.40;43.00;;;;;;7689067;23;20020;-73
2021/01/11 10:46:03;;;;;;;15.02;7.47;;;6.40;42.80;;;;;;7688787;23;20012;-72
2021/01/11 10:49:05;;;;;;;16.52;8.13;;;6.50;42.90;;;;;;7663390;23;20103;-73
2021/01/11 10:52:08;;;;;;;22.83;10.13;;;6.50;42.70;;;;;;7714804;23;20024;-75
2021/01/11 10:55:10;;;;;;;17.75;7.50;;;6.60;42.60;;;;;;7689351;23;20031;-72
2021/01/11 10:58:12;;;;;;;20.67;7.65;;;6.60;41.90;;;;;;7688840;23;20021;-75
2021/01/11 11:01:14;;;;;;;17.15;7.28;;;6.60;41.90;;;;;;7689425;23;20307;-73
2021/01/11 11:04:15;;;;;;;14.05;6.30;;;6.60;41.80;;;;;;7714436;23;20034;-73
2021/01/11 11:07:16;;;;;;;20.20;7.55;;;6.50;41.30;;;;;;7689013;23;20017;-73
2021/01/11 11:10:17;;;;;;;29.80;7.57;;;6.50;41.40;;;;;;7691725;23;20099;-73
2021/01/11 11:13:18;;;;;;;55.17;21.00;;;6.50;41.40;;;;;;7691597;23;20315;-74
2021/01/11 11:16:19;;;;;;;30.00;11.48;;;6.50;41.20;;;;;;7691030;23;20027;-75
2021/01/11 11:19:20;;;;;;;21.77;8.20;;;6.50;41.40;;;;;;7688861;23;20012;-75
2021/01/11 11:22:21;;;;;;;21.67;8.25;;;6.60;42.20;;;;;;7713884;23;20017;-73
2021/01/11 11:25:22;;;;;;;20.40;8.75;;;6.70;41.60;;;;;;7650629;23;20008;-74
2021/01/11 11:28:23;;;;;;;20.20;8.18;;;6.80;41.50;;;;;;7688042;23;20250;-74
2021/01/11 11:31:25;;;;;;;18.25;8.43;;;6.90;41.40;;;;;;7650343;23;20027;-74
2021/01/11 11:34:25;;;;;;;19.40;6.90;;;7.00;41.00;;;;;;7688655;23;20302;-74
2021/01/11 11:37:26;;;;;;;18.90;7.65;;;7.10;40.60;;;;;;7715524;23;20013;-75
2021/01/11 11:40:27;;;;;;;16.70;6.60;;;7.00;40.10;;;;;;7717183;23;20009;-75
2021/01/11 11:43:28;;;;;;;15.88;7.25;;;7.00;40.30;;;;;;7692081;23;20016;-74
2021/01/11 11:46:30;;;;;;;16.50;7.82;;;7.00;40.20;;;;;;7711301;23;20091;-74
2021/01/11 11:49:32;;;;;;;20.65;8.15;;;7.00;40.20;;;;;;7662370;23;20013;-75
2021/01/11 11:52:33;;;;;;;20.40;8.35;;;7.10;40.30;;;;;;7688115;23;20005;-75
2021/01/11 11:55:35;;;;;;;17.67;7.30;;;7.10;40.30;;;;;;7687470;23;20044;-73
2021/01/11 11:58:36;;;;;;;15.95;7.28;;;7.20;40.10;;;;;;7713386;23;20027;-73
2021/01/11 12:01:38;;;;;;;17.73;8.05;;;7.20;40.10;;;;;;7688679;23;20016;-74
2021/01/11 12:04:40;;;;;;;15.63;7.28;;;7.20;40.10;;;;;;7688294;23;20077;-73
2021/01/11 12:07:41;;;;;;;23.50;9.35;;;7.30;40.10;;;;;;7712810;23;20288;-73
2021/01/11 12:10:43;;;;;;;18.95;8.23;;;7.30;40.10;;;;;;7662895;23;20028;-72
2021/01/11 12:13:44;;;;;;;20.30;7.97;;;7.30;39.90;;;;;;7714870;23;20115;-75
2021/01/11 12:16:48;;;;;;;20.30;8.30;;;7.40;39.70;;;;;;7647203;23;20440;-73
2021/01/11 12:19:49;;;;;;;16.05;6.78;;;7.30;39.40;;;;;;7687310;23;20017;-73
2021/01/11 12:22:50;;;;;;;17.80;8.45;;;7.30;39.40;;;;;;7687066;23;20338;-73
2021/01/11 12:25:51;;;;;;;20.88;7.97;;;7.20;39.30;;;;;;7714573;23;20021;-73
2021/01/11 12:28:53;;;;;;;18.33;8.63;;;7.20;39.50;;;;;;7686562;23;20104;-73
2021/01/11 12:31:54;;;;;;;29.90;11.27;;;7.20;39.60;;;;;;7714898;23;20016;-74
2021/01/11 12:34:55;;;;;;;31.00;11.43;;;7.20;39.60;;;;;;7689370;23;20043;-74
2021/01/11 12:37:55;;;;;;;19.75;7.90;;;7.30;39.40;;;;;;7726598;23;20021;-75
2021/01/11 12:40:56;;;;;;;14.13;7.25;;;7.30;39.30;;;;;;7700533;23;20079;-74
2021/01/11 12:43:57;;;;;;;18.50;8.48;;;7.30;39.30;;;;;;7711800;23;20028;-74
2021/01/11 12:46:58;;;;;;;20.02;8.82;;;7.30;39.00;;;;;;7736094;23;20209;-72
2021/01/11 12:49:59;;;;;;;22.33;8.48;;;7.30;38.90;;;;;;7672622;23;20027;-75
2021/01/11 12:53:00;;;;;;;24.00;8.85;;;7.30;39.10;;;;;;7720046;23;20008;-73
2021/01/11 12:56:09;;;;;;;24.13;10.98;;;7.40;39.20;;;;;;7669069;23;20432;-75
2021/01/11 12:59:11;;;;;;;15.80;8.27;;;7.40;39.00;;;;;;7668870;23;20035;-74
2021/01/11 13:02:13;;;;;;;16.38;6.93;;;7.50;38.90;;;;;;7694962;23;20016;-75
2021/01/11 13:05:17;;;;;;;17.90;8.25;;;7.50;38.70;;;;;;7699071;23;20013;-76
2021/01/11 13:08:17;;;;;;;18.50;8.52;;;7.60;38.50;;;;;;7698011;23;20012;-73
2021/01/11 13:11:23;;;;;;;17.55;7.55;;;7.60;38.40;;;;;;7692319;23;20020;-74
2021/01/11 13:14:25;;;;;;;19.15;7.60;;;7.60;38.60;;;;;;7664380;23;20416;-74
2021/01/11 13:17:26;;;;;;;17.10;7.38;;;7.60;38.50;;;;;;7717041;23;20017;-73
2021/01/11 13:20:27;;;;;;;17.88;7.03;;;7.60;38.50;;;;;;7711343;23;20408;-75
2021/01/11 13:23:28;;;;;;;20.77;8.48;;;7.60;38.20;;;;;;7721231;23;20375;-74
2021/01/11 13:26:31;;;;;;;18.00;7.60;;;7.60;38.80;;;;;;7719180;23;20018;-74
2021/01/11 13:29:33;;;;;;;17.52;7.45;;;7.60;38.30;;;;;;7714009;23;20009;-74
2021/01/11 13:32:34;;;;;;;14.43;7.38;;;7.60;38.30;;;;;;7687119;23;20016;-74
2021/01/11 13:35:35;;;;;;;17.42;6.97;;;7.60;38.40;;;;;;7662704;23;20023;-74
2021/01/11 13:38:37;;;;;;;16.35;7.95;;;7.60;38.40;;;;;;7686737;23;20273;-73
2021/01/11 13:41:43;;;;;;;19.30;7.70;;;7.50;38.40;;;;;;7679440;23;20020;-74
2021/01/11 13:44:44;;;;;;;19.35;8.45;;;7.50;38.40;;;;;;7711031;23;20020;-74
2021/01/11 13:47:48;;;;;;;17.90;7.85;;;7.50;38.60;;;;;;7687521;23;20400;-75
2021/01/11 13:50:49;;;;;;;18.83;7.78;;;7.40;38.60;;;;;;7713058;23;20363;-73
2021/01/11 13:53:50;;;;;;;20.15;8.38;;;7.40;38.70;;;;;;7662521;23;20017;-73
2021/01/11 13:56:51;;;;;;;25.33;11.45;;;7.40;38.70;;;;;;7687271;23;20020;-73
2021/01/11 13:59:52;;;;;;;17.92;7.40;;;7.40;38.30;;;;;;7686791;23;20012;-73
2021/01/11 14:02:53;;;;;;;16.90;7.57;;;7.30;38.20;;;;;;7687716;23;20395;-73
2021/01/11 14:05:54;;;;;;;14.80;7.47;;;7.20;38.50;;;;;;7687550;23;20459;-74
2021/01/11 14:08:57;;;;;;;19.05;7.55;;;7.20;38.60;;;;;;7690488;23;20015;-74
2021/01/11 14:11:59;;;;;;;19.08;7.90;;;7.30;38.50;;;;;;7691262;23;20013;-74
2021/01/11 14:15:00;;;;;;;24.13;8.00;;;7.30;38.30;;;;;;7689883;23;20043;-74
2021/01/11 14:18:02;;;;;;;19.85;7.53;;;7.30;38.30;;;;;;7717197;23;20456;-73
2021/01/11 14:21:03;;;;;;;20.70;9.00;;;7.30;38.50;;;;;;7690928;23;20051;-74
2021/01/11 14:24:06;;;;;;;23.33;9.05;;;7.30;38.40;;;;;;7695374;23;20461;-74
2021/01/11 14:27:07;;;;;;;27.73;11.88;;;7.30;38.50;;;;;;7672686;23;20027;-73
2021/01/11 14:30:09;;;;;;;21.38;8.27;;;7.30;38.60;;;;;;7725689;23;20296;-74
2021/01/11 14:33:10;;;;;;;17.10;6.88;;;7.30;38.50;;;;;;7695981;23;20023;-74
2021/01/11 14:36:12;;;;;;;17.38;7.43;;;7.10;38.30;;;;;;7695727;23;20040;-74
2021/01/11 14:39:13;;;;;;;19.77;8.13;;;7.00;38.50;;;;;;7664809;23;20264;-73
2021/01/11 14:42:14;;;;;;;14.50;7.35;;;7.00;38.70;;;;;;7687588;23;20040;-74
2021/01/11 14:45:15;;;;;;;19.33;7.05;;;6.90;38.90;;;;;;7687606;23;20020;-74
2021/01/11 14:48:16;;;;;;;16.13;7.35;;;6.90;39.10;;;;;;7714867;23;20009;-74
2021/01/11 14:51:17;;;;;;;19.63;8.25;;;6.90;39.20;;;;;;7688735;23;20016;-74
2021/01/11 14:54:19;;;;;;;15.00;7.35;;;6.90;39.30;;;;;;7663639;23;20028;-74
2021/01/11 14:57:20;;;;;;;20.08;7.60;;;7.00;39.30;;;;;;7699090;23;20103;-74
2021/01/11 15:00:21;;;;;;;21.63;7.72;;;6.90;39.30;;;;;;7686675;23;20443;-74
2021/01/11 15:03:22;;;;;;;17.52;8.13;;;7.00;39.40;;;;;;7689254;23;20087;-74
2021/01/11 15:06:23;;;;;;;20.95;8.02;;;6.90;39.40;;;;;;7688793;23;20016;-74
2021/01/11 15:09:24;;;;;;;18.38;7.75;;;6.90;39.50;;;;;;7687692;23;20020;-75
2021/01/11 15:12:25;;;;;;;18.27;7.47;;;6.80;39.60;;;;;;7715945;23;20079;-73
2021/01/11 15:15:26;;;;;;;17.42;8.48;;;6.90;39.70;;;;;;7688928;23;20423;-74
2021/01/11 15:18:27;;;;;;;20.67;7.90;;;6.80;39.70;;;;;;7692265;23;20017;-74
2021/01/11 15:21:28;;;;;;;19.67;7.65;;;6.80;39.70;;;;;;7691642;23;20112;-73
2021/01/11 15:24:29;;;;;;;23.52;8.20;;;6.80;39.60;;;;;;7690379;23;20451;-74
2021/01/11 15:27:30;;;;;;;23.63;8.73;;;6.80;39.60;;;;;;7715192;23;20736;-74
2021/01/11 15:30:31;;;;;;;16.73;8.35;;;6.70;39.70;;;;;;7686882;23;20017;-75
2021/01/11 15:33:33;;;;;;;16.75;7.25;;;6.70;39.90;;;;;;7715288;23;20031;-74
2021/01/11 15:36:34;;;;;;;16.63;7.97;;;6.70;40.00;;;;;;7688950;23;20376;-73
2021/01/11 15:39:36;;;;;;;23.42;9.07;;;6.70;40.10;;;;;;7688217;23;20024;-73
2021/01/11 15:42:43;;;;;;;21.92;9.18;;;6.60;40.70;;;;;;7688179;23;20016;-73
2021/01/11 15:45:48;;;;;;;24.13;9.65;;;6.60;41.20;;;;;;7687650;23;20092;-73